Time;durP1;ratioP1;P1;durP2;ratioP2;P2;SDS_P1;SDS_P2;PMS_P1;PMS_P2;Temp;Humidity;BMP_temperature;BMP_pressure;BME280_temperature;BME280_humidity;BME280_pressure;Samples;Min_cycle;Max_cycle;Signal;HPM_P1;HPM_P2
2022/01/11 00:00:49;;;;;;;7.13;4.43;;;;;;;18.34;51.84;101577.31;5047754;28;20228;-61
2022/01/11 00:03:16;;;;;;;7.47;3.60;;;;;;;18.31;52.21;101577.97;5049768;28;20220;-61
2022/01/11 00:08:18;;;;;;;6.73;3.70;;;;;;;18.30;51.91;101567.72;5041782;28;20414;-62
2022/01/11 00:10:49;;;;;;;8.10;4.53;;;;;;;18.33;52.09;101575.66;5048774;28;20407;-62
2022/01/11 00:13:18;;;;;;;6.73;3.97;;;;;;;18.28;51.96;101583.53;5046264;28;20522;-62
2022/01/11 00:15:44;;;;;;;6.17;3.87;;;;;;;18.22;52.18;101580.03;5048141;28;20403;-62
2022/01/11 00:18:10;;;;;;;8.73;4.00;;;;;;;18.21;52.51;101577.56;5042233;28;20453;-62
2022/01/11 00:20:37;;;;;;;6.13;3.47;;;;;;;18.19;52.53;101580.75;5049467;28;20465;-62
2022/01/11 00:25:38;;;;;;;8.43;4.53;;;;;;;18.21;52.38;101589.81;5048987;28;20484;-62
2022/01/11 00:28:04;;;;;;;7.23;3.70;;;;;;;18.19;52.65;101591.34;5048806;28;20159;-62
2022/01/11 00:30:35;;;;;;;6.80;4.00;;;;;;;18.20;52.69;101584.44;5048544;28;20418;-62
2022/01/11 00:33:04;;;;;;;8.43;4.70;;;;;;;18.21;52.38;101589.00;5031661;28;20840;-62
2022/01/11 00:35:39;;;;;;;5.47;3.77;;;;;;;18.18;52.45;101595.38;5028950;28;20415;-62
2022/01/11 00:38:06;;;;;;;6.63;3.50;;;;;;;18.20;52.25;101593.84;5029614;28;20426;-62
2022/01/11 00:40:31;;;;;;;5.60;3.80;;;;;;;18.20;52.66;101599.56;5012418;28;20954;-62
2022/01/11 00:42:59;;;;;;;6.70;3.70;;;;;;;18.21;52.51;101595.53;5028552;28;20538;-62
2022/01/11 00:45:46;;;;;;;6.90;3.30;;;;;;;18.23;52.64;101590.31;5029050;28;20593;-62
2022/01/11 00:48:12;;;;;;;6.20;3.87;;;;;;;18.24;52.49;101589.13;5031912;28;20415;-62
2022/01/11 00:50:37;;;;;;;7.20;4.27;;;;;;;18.28;52.12;101590.13;5030704;28;20799;-62
2022/01/11 00:53:04;;;;;;;9.10;4.17;;;;;;;18.29;51.90;101591.78;5048914;28;20218;-62
2022/01/11 00:55:29;;;;;;;6.77;3.73;;;;;;;18.28;52.21;101592.13;5013341;28;20176;-62
2022/01/11 00:57:55;;;;;;;5.47;3.63;;;;;;;18.22;52.28;101594.34;5030766;28;20430;-62
2022/01/11 01:00:20;;;;;;;5.30;3.93;;;;;;;18.24;52.21;101594.84;5028201;28;20609;-62
2022/01/11 01:02:46;;;;;;;7.60;3.90;;;;;;;18.24;52.56;101594.00;5028623;28;20175;-62
2022/01/11 01:05:11;;;;;;;4.10;3.30;;;;;;;18.21;52.62;101598.38;5028821;28;20176;-62
2022/01/11 01:07:37;;;;;;;8.37;3.53;;;;;;;18.24;52.19;101594.00;5028947;28;20203;-62
2022/01/11 01:10:08;;;;;;;5.97;3.83;;;;;;;18.26;52.18;101597.38;5027853;28;20539;-62
2022/01/11 01:12:33;;;;;;;7.23;3.60;;;;;;;18.22;52.60;101597.19;5028418;28;20152;-62
2022/01/11 01:15:00;;;;;;;8.23;4.00;;;;;;;18.21;52.36;101606.97;5028751;28;20419;-62
2022/01/11 01:17:26;;;;;;;7.33;4.27;;;;;;;18.25;52.59;101604.25;5031992;28;20156;-62
2022/01/11 01:19:52;;;;;;;5.50;3.50;;;;;;;18.20;52.81;101602.44;5046097;28;20468;-62
2022/01/11 01:22:17;;;;;;;5.70;3.47;;;;;;;18.25;52.53;101601.38;5032294;28;20418;-62
2022/01/11 01:24:42;;;;;;;6.43;3.80;;;;;;;18.22;52.34;101605.78;5030653;28;20561;-62
2022/01/11 01:27:08;;;;;;;6.40;4.27;;;;;;;18.25;52.26;101607.94;5031608;28;20225;-62
2022/01/11 01:29:33;;;;;;;6.80;3.37;;;;;;;18.19;52.41;101608.50;5034680;28;20164;-62
2022/01/11 01:32:00;;;;;;;5.80;3.80;;;;;;;18.18;52.89;101606.81;5014525;28;20203;-62
2022/01/11 01:34:26;;;;;;;4.93;3.43;;;;;;;18.21;52.27;101601.25;5014666;28;20200;-62
2022/01/11 01:36:52;;;;;;;7.03;4.03;;;;;;;18.19;52.72;101617.06;5032646;28;20438;-62
2022/01/11 01:39:17;;;;;;;7.80;3.53;;;;;;;18.20;52.43;101616.72;5014146;28;20207;-62
2022/01/11 01:41:45;;;;;;;6.80;3.83;;;;;;;18.20;52.76;101616.72;5032826;28;20535;-62
2022/01/11 01:44:10;;;;;;;6.30;3.73;;;;;;;18.23;52.29;101620.91;5032129;28;20175;-62
2022/01/11 01:46:36;;;;;;;5.33;3.33;;;;;;;18.18;52.70;101624.81;5032841;28;20791;-62
2022/01/11 01:49:02;;;;;;;7.57;3.80;;;;;;;18.22;52.52;101620.06;5041610;28;20195;-62
2022/01/11 01:51:28;;;;;;;5.60;3.57;;;;;;;18.26;52.27;101623.91;5051981;28;20635;-62
2022/01/11 01:53:53;;;;;;;4.17;3.03;;;;;;;18.20;52.60;101622.44;5051669;28;20301;-62
2022/01/11 01:56:20;;;;;;;4.37;3.40;;;;;;;18.21;52.22;101626.97;5017848;28;20426;-62
2022/01/11 01:58:45;;;;;;;5.07;2.90;;;;;;;18.13;52.55;101624.19;5051930;28;20207;-62
2022/01/11 02:01:13;;;;;;;6.03;3.50;;;;;;;18.13;52.88;101630.75;5051626;28;20532;-62
2022/01/11 02:03:39;;;;;;;5.33;3.60;;;;;;;18.10;52.98;101628.56;5051730;28;20550;-62
2022/01/11 02:06:15;;;;;;;5.13;2.97;;;;;;;18.14;52.83;101625.84;5051904;28;20495;-62
2022/01/11 02:08:44;;;;;;;5.00;3.20;;;;;;;18.18;52.87;101633.41;5034372;28;20458;-62
2022/01/11 02:11:10;;;;;;;5.83;3.50;;;;;;;18.16;52.45;101623.50;5031613;28;20403;-62
2022/01/11 02:13:36;;;;;;;4.93;3.10;;;;;;;18.17;52.63;101631.69;5014273;28;20876;-62
2022/01/11 02:16:03;;;;;;;5.53;3.00;;;;;;;18.18;52.67;101630.53;5032164;28;20274;-62
2022/01/11 02:18:28;;;;;;;6.17;3.27;;;;;;;18.18;52.82;101630.53;5043008;28;20180;-62
2022/01/11 02:20:56;;;;;;;6.53;3.63;;;;;;;18.17;52.35;101628.84;5032876;28;20880;-62
2022/01/11 02:23:21;;;;;;;7.03;4.43;;;;;;;18.18;52.34;101626.84;5051753;28;20203;-62
2022/01/11 02:25:47;;;;;;;5.10;3.30;;;;;;;18.20;52.39;101624.44;5051583;28;20425;-62
2022/01/11 02:28:14;;;;;;;6.40;3.47;;;;;;;18.18;52.80;101624.81;5051510;28;20594;-62
2022/01/11 02:30:40;;;;;;;4.97;3.50;;;;;;;18.18;52.64;101627.69;5051442;28;20255;-62
2022/01/11 02:33:10;;;;;;;5.77;3.73;;;;;;;18.18;52.58;101621.13;5038713;28;20470;-62
2022/01/11 02:35:36;;;;;;;5.50;3.40;;;;;;;18.20;52.71;101622.44;5033877;28;20458;-62
2022/01/11 02:38:01;;;;;;;4.53;3.00;;;;;;;18.22;52.59;101622.09;5030270;28;20462;-62
2022/01/11 02:40:26;;;;;;;5.13;3.00;;;;;;;18.18;52.71;101624.81;5033237;28;20209;-62
2022/01/11 02:42:52;;;;;;;7.60;3.70;;;;;;;18.14;52.48;101626.69;5031653;28;20176;-62
2022/01/11 02:45:19;;;;;;;6.17;3.27;;;;;;;18.19;52.40;101632.22;5031516;28;20184;-62
2022/01/11 02:47:45;;;;;;;6.50;3.77;;;;;;;18.19;52.55;101634.22;5031163;28;20200;-62
2022/01/11 02:50:12;;;;;;;5.67;3.37;;;;;;;18.17;52.60;101639.47;5037837;28;20884;-62
2022/01/11 02:52:37;;;;;;;5.80;3.70;;;;;;;18.15;52.68;101642.66;5032304;28;20922;-62
2022/01/11 02:55:06;;;;;;;8.00;3.60;;;;;;;18.16;52.64;101641.47;5031078;28;20431;-62
2022/01/11 02:57:32;;;;;;;6.13;3.20;;;;;;;18.16;52.85;101637.78;5013503;28;20580;-62
2022/01/11 02:59:57;;;;;;;4.30;2.90;;;;;;;18.16;52.79;101632.06;5029991;28;20490;-62
2022/01/11 03:02:23;;;;;;;4.77;3.57;;;;;;;18.14;52.54;101632.41;5030569;28;20523;-62
2022/01/11 03:04:48;;;;;;;5.20;3.23;;;;;;;18.12;52.58;101640.47;5030946;28;20608;-61
2022/01/11 03:07:19;;;;;;;3.70;2.63;;;;;;;18.14;52.80;101640.13;5030596;28;20208;-62
2022/01/11 03:10:12;;;;;;;3.90;2.83;;;;;;;18.15;52.84;101642.66;5030619;28;20259;-62
2022/01/11 03:12:30;;;;;;;5.07;3.37;;;;;;;18.17;52.57;101633.75;5029851;28;20439;-62
2022/01/11 03:14:55;;;;;;;3.80;2.70;;;;;;;18.10;52.96;101640.00;5030723;28;20427;-62
2022/01/11 03:17:21;;;;;;;4.87;3.00;;;;;;;18.14;52.50;101643.84;5035461;28;20647;-62
2022/01/11 03:19:46;;;;;;;6.07;3.80;;;;;;;18.13;52.67;101636.47;5050008;28;20200;-62
2022/01/11 03:22:12;;;;;;;4.87;3.10;;;;;;;18.12;52.80;101639.66;5049978;28;20175;-62
2022/01/11 03:24:38;;;;;;;4.10;3.20;;;;;;;18.16;52.77;101635.75;5050913;28;20175;-62
2022/01/11 03:27:06;;;;;;;5.50;3.27;;;;;;;18.19;52.65;101639.94;5050656;28;20594;-62
2022/01/11 03:29:33;;;;;;;5.77;3.10;;;;;;;18.18;52.60;101641.13;5037099;28;20454;-62
2022/01/11 03:31:58;;;;;;;5.73;3.33;;;;;;;18.20;52.42;101648.16;5047406;28;20462;-62
2022/01/11 03:34:24;;;;;;;5.00;3.07;;;;;;;18.18;52.51;101644.84;5050030;28;20909;-62
2022/01/11 03:36:49;;;;;;;4.97;3.30;;;;;;;18.19;52.54;101648.50;5050005;28;20187;-62
2022/01/11 03:39:14;;;;;;;6.87;3.70;;;;;;;18.23;52.28;101644.63;5049614;28;20183;-62
2022/01/11 03:41:40;;;;;;;4.60;3.20;;;;;;;18.28;52.29;101653.00;5050997;28;20179;-62
2022/01/11 03:44:06;;;;;;;4.90;2.90;;;;;;;18.22;52.57;101651.50;5031610;28;20738;-62
2022/01/11 03:46:31;;;;;;;4.70;2.93;;;;;;;18.19;52.48;101649.38;5049907;28;20543;-62
2022/01/11 03:48:57;;;;;;;4.80;3.07;;;;;;;18.19;52.50;101648.50;5049211;28;20426;-61
2022/01/11 03:51:22;;;;;;;4.00;3.00;;;;;;;18.17;52.63;101646.00;5050080;28;20643;-61
2022/01/11 03:54:07;;;;;;;4.50;3.20;;;;;;;18.16;52.71;101646.38;5049544;28;20221;-62
2022/01/11 03:56:33;;;;;;;5.07;3.40;;;;;;;18.18;52.36;101641.13;5050027;28;20167;-62
2022/01/11 03:59:00;;;;;;;5.63;2.93;;;;;;;18.15;52.83;101631.22;5048530;28;20811;-61
2022/01/11 04:01:25;;;;;;;4.10;3.07;;;;;;;18.15;52.59;101630.38;5048219;28;20306;-62
2022/01/11 04:03:51;;;;;;;4.70;3.40;;;;;;;18.18;52.44;101639.13;5049928;28;20427;-62
2022/01/11 04:06:16;;;;;;;6.30;3.20;;;;;;;18.17;52.67;101640.28;5049690;28;20773;-62
2022/01/11 04:08:43;;;;;;;4.53;3.10;;;;;;;18.17;52.38;101642.31;5048986;28;20179;-62
2022/01/11 04:11:09;;;;;;;5.10;3.00;;;;;;;18.16;52.55;101637.78;5049180;28;20174;-62
2022/01/11 04:13:34;;;;;;;4.57;2.93;;;;;;;18.13;52.72;101647.03;5048078;28;20826;-62
2022/01/11 04:16:00;;;;;;;4.37;2.93;;;;;;;18.16;52.36;101647.19;5035362;28;20900;-62
2022/01/11 04:18:26;;;;;;;4.30;2.90;;;;;;;18.13;52.98;101644.19;5033989;28;20548;-62
2022/01/11 04:20:51;;;;;;;4.67;3.23;;;;;;;18.13;52.77;101652.75;5048899;28;20195;-62
2022/01/11 04:23:17;;;;;;;4.83;3.47;;;;;;;18.16;52.71;101654.94;5049852;28;20676;-62
2022/01/11 04:25:42;;;;;;;4.97;2.97;;;;;;;18.11;52.86;101658.81;5048973;28;20461;-62
2022/01/11 04:28:08;;;;;;;5.33;3.37;;;;;;;18.13;52.71;101667.03;5049390;28;20178;-61
2022/01/11 04:30:34;;;;;;;4.50;2.73;;;;;;;18.13;52.77;101662.19;5040109;28;20164;-62
2022/01/11 04:33:00;;;;;;;4.53;3.13;;;;;;;18.14;52.56;101663.00;5028588;28;20267;-62
2022/01/11 04:35:25;;;;;;;3.70;2.70;;;;;;;18.10;52.78;101670.59;5031314;28;20497;-62
2022/01/11 04:37:51;;;;;;;4.50;3.20;;;;;;;18.12;52.71;101666.19;5011140;28;20173;-62
2022/01/11 04:40:16;;;;;;;4.57;2.87;;;;;;;18.15;52.72;101674.09;5029107;28;20287;-62
2022/01/11 04:42:42;;;;;;;5.33;3.33;;;;;;;18.12;52.98;101674.78;5031083;28;20172;-63
2022/01/11 04:45:10;;;;;;;3.60;2.43;;;;;;;18.16;52.43;101684.34;5029983;28;20675;-62
2022/01/11 04:47:36;;;;;;;6.13;3.73;;;;;;;18.17;52.81;101679.47;5030383;28;20267;-62
2022/01/11 04:50:01;;;;;;;4.97;3.00;;;;;;;18.15;52.77;101688.38;5028879;28;20548;-62
2022/01/11 04:52:27;;;;;;;4.10;2.90;;;;;;;18.13;52.71;101689.91;5048461;28;20203;-62
2022/01/11 04:54:52;;;;;;;3.60;2.90;;;;;;;18.20;52.46;101699.63;5048769;28;20222;-62
2022/01/11 04:57:17;;;;;;;4.80;2.97;;;;;;;18.18;52.38;101689.72;5048746;28;20172;-62
2022/01/11 04:59:43;;;;;;;4.70;2.83;;;;;;;18.17;52.45;101691.72;5048285;28;20300;-62
2022/01/11 05:02:08;;;;;;;5.20;2.93;;;;;;;18.24;52.28;101700.63;5048542;28;20647;-62
2022/01/11 05:04:34;;;;;;;4.50;3.10;;;;;;;18.21;52.56;101706.19;5048638;28;20220;-62
2022/01/11 05:06:59;;;;;;;7.53;3.27;;;;;;;18.17;52.53;101703.16;5048577;28;20199;-62
2022/01/11 05:09:25;;;;;;;4.27;2.87;;;;;;;18.17;52.53;101706.00;5048035;28;20534;-62
2022/01/11 05:11:50;;;;;;;5.10;3.30;;;;;;;18.12;52.82;101700.50;5048161;28;20167;-62
2022/01/11 05:14:16;;;;;;;4.17;3.37;;;;;;;18.13;52.87;101698.47;5030705;28;20202;-62
2022/01/11 05:16:41;;;;;;;3.43;2.60;;;;;;;18.11;52.70;101698.81;5048965;28;20180;-62
2022/01/11 05:19:12;;;;;;;4.60;2.67;;;;;;;18.09;52.92;101700.34;5040498;28;20230;-62
2022/01/11 05:21:38;;;;;;;4.73;2.80;;;;;;;18.11;52.89;101701.69;5031302;28;20179;-62
2022/01/11 05:24:04;;;;;;;3.40;2.87;;;;;;;18.16;52.68;101704.34;5028407;28;20415;-62
2022/01/11 05:26:29;;;;;;;4.23;2.77;;;;;;;18.20;52.63;101701.63;5028425;28;20476;-62
2022/01/11 05:28:54;;;;;;;4.70;2.70;;;;;;;18.15;52.53;101704.69;5027804;28;20181;-62
2022/01/11 05:31:20;;;;;;;3.83;2.97;;;;;;;18.20;52.62;101711.06;5028166;28;20173;-62
2022/01/11 05:33:45;;;;;;;4.70;3.33;;;;;;;18.16;52.45;101712.91;5028462;28;20187;-62
2022/01/11 05:36:11;;;;;;;4.30;2.83;;;;;;;18.20;52.53;101713.06;5028673;28;20224;-61
2022/01/11 05:38:36;;;;;;;3.43;2.67;;;;;;;18.20;52.76;101716.78;5030848;28;20195;-62
2022/01/11 05:41:02;;;;;;;4.77;3.23;;;;;;;18.21;52.54;101714.75;5012208;28;20282;-62
2022/01/11 05:43:27;;;;;;;5.10;3.37;;;;;;;18.18;52.69;101727.72;5028755;28;20191;-62
2022/01/11 05:45:52;;;;;;;4.73;3.30;;;;;;;18.15;52.46;101721.84;5028516;28;20210;-61
2022/01/11 05:48:19;;;;;;;3.50;2.80;;;;;;;18.17;52.71;101731.75;5032487;28;20229;-61
2022/01/11 05:50:45;;;;;;;5.27;3.40;;;;;;;18.16;52.90;101735.78;5047802;28;20179;-62
2022/01/11 05:53:11;;;;;;;3.30;2.50;;;;;;;18.14;52.52;101735.31;5048834;28;20429;-61
2022/01/11 05:55:40;;;;;;;4.60;3.00;;;;;;;18.16;52.53;101735.78;5029749;28;20176;-62
2022/01/11 05:58:05;;;;;;;4.13;3.13;;;;;;;18.16;52.72;101743.53;5047929;28;20918;-62
2022/01/11 06:00:31;;;;;;;3.80;2.93;;;;;;;18.16;52.42;101737.81;5047459;28;20484;-62
2022/01/11 06:02:58;;;;;;;4.43;3.00;;;;;;;18.17;52.65;101748.88;5048282;28;20267;-62
2022/01/11 06:05:24;;;;;;;5.27;3.00;;;;;;;18.19;52.28;101746.53;5048277;28;20616;-62
2022/01/11 06:07:50;;;;;;;4.47;3.23;;;;;;;18.17;52.44;101743.19;5047682;28;20437;-62
2022/01/11 06:10:15;;;;;;;4.17;3.23;;;;;;;18.18;52.71;101750.59;5028980;28;20179;-62
2022/01/11 06:12:41;;;;;;;3.63;2.83;;;;;;;18.20;52.43;101753.94;5030656;28;20180;-62
2022/01/11 06:15:07;;;;;;;4.90;3.10;;;;;;;18.24;52.54;101752.06;5051965;28;20208;-61
2022/01/11 06:17:32;;;;;;;4.77;3.37;;;;;;;18.22;52.55;101756.44;5051617;28;20579;-62
2022/01/11 06:19:57;;;;;;;4.77;3.03;;;;;;;18.17;52.61;101754.59;5051113;28;20208;-62
2022/01/11 06:22:24;;;;;;;3.33;2.30;;;;;;;18.15;52.69;101756.13;5049503;28;20180;-62
2022/01/11 06:24:51;;;;;;;5.43;3.17;;;;;;;18.20;52.30;101755.94;5031882;28;20180;-62
2022/01/11 06:27:16;;;;;;;5.47;3.70;;;;;;;18.26;52.41;101769.69;5031575;28;20433;-62
2022/01/11 06:29:42;;;;;;;4.80;3.30;;;;;;;18.27;52.09;101767.69;5033651;28;20399;-62
2022/01/11 06:32:07;;;;;;;4.20;2.93;;;;;;;18.23;52.59;101761.84;5031620;28;20690;-63
2022/01/11 06:34:32;;;;;;;3.80;2.77;;;;;;;18.24;52.50;101759.78;5032032;28;20184;-62
2022/01/11 06:36:59;;;;;;;6.00;3.33;;;;;;;18.20;52.37;101765.38;5033458;28;20208;-62
2022/01/11 06:39:25;;;;;;;3.80;3.13;;;;;;;18.13;52.52;101772.78;5032121;28;20263;-62
2022/01/11 06:41:51;;;;;;;4.67;3.47;;;;;;;18.15;52.65;101768.41;5033071;28;20415;-62
2022/01/11 06:44:16;;;;;;;4.77;3.17;;;;;;;18.13;52.86;101769.94;5030975;28;20430;-62
2022/01/11 06:46:42;;;;;;;7.40;3.53;;;;;;;18.16;52.59;101772.13;5033600;28;20223;-62
2022/01/11 06:49:07;;;;;;;5.50;3.13;;;;;;;18.14;52.53;101778.19;5041584;28;20187;-62
2022/01/11 06:51:32;;;;;;;4.50;3.33;;;;;;;18.14;52.93;101781.03;5051021;28;20182;-62
2022/01/11 06:53:58;;;;;;;4.50;3.23;;;;;;;18.15;52.66;101779.00;5050751;28;20180;-62
2022/01/11 06:56:24;;;;;;;4.67;2.90;;;;;;;18.20;52.63;101782.53;5050842;28;20636;-62
2022/01/11 06:58:50;;;;;;;4.60;3.40;;;;;;;18.17;52.83;101783.19;5050924;28;20180;-62
2022/01/11 07:01:15;;;;;;;4.00;2.87;;;;;;;18.18;52.41;101778.31;5050499;28;20251;-62
2022/01/11 07:03:41;;;;;;;4.93;3.43;;;;;;;18.15;52.64;101782.72;5050874;28;20243;-62
2022/01/11 07:06:06;;;;;;;4.50;3.07;;;;;;;18.18;52.44;101784.88;5050053;28;20210;-62
2022/01/11 07:08:31;;;;;;;5.93;3.50;;;;;;;18.23;52.47;101781.00;5050597;28;20231;-62
2022/01/11 07:10:57;;;;;;;5.30;2.97;;;;;;;18.27;52.27;101794.25;5050055;28;20226;-62
2022/01/11 07:13:22;;;;;;;4.87;3.30;;;;;;;18.24;52.33;101783.50;5050989;28;20202;-62
2022/01/11 07:15:48;;;;;;;4.40;3.13;;;;;;;18.22;52.42;101796.47;5032773;28;20233;-62
2022/01/11 07:18:13;;;;;;;4.63;2.77;;;;;;;18.27;52.45;101791.38;5050265;28;20594;-62
2022/01/11 07:20:42;;;;;;;4.17;3.30;;;;;;;18.24;52.62;101792.09;5038668;28;20204;-62
2022/01/11 07:23:08;;;;;;;4.80;3.30;;;;;;;18.21;52.73;101803.38;5030444;28;20212;-62
2022/01/11 07:25:33;;;;;;;3.60;2.63;;;;;;;18.21;52.28;101807.06;5030367;28;20423;-62
2022/01/11 07:27:59;;;;;;;4.30;2.97;;;;;;;18.21;52.54;101812.78;5033411;28;20180;-62
2022/01/11 07:30:25;;;;;;;7.60;3.80;;;;;;;18.25;52.59;101805.19;5029594;28;20182;-62
2022/01/11 07:32:50;;;;;;;4.80;3.13;;;;;;;18.22;52.52;101805.06;5032344;28;20470;-62
2022/01/11 07:35:16;;;;;;;4.50;2.63;;;;;;;18.24;52.59;101799.81;5030068;28;20172;-62
2022/01/11 07:37:41;;;;;;;4.30;2.83;;;;;;;18.22;52.36;101811.59;5029188;28;20195;-62
2022/01/11 07:40:07;;;;;;;4.77;3.60;;;;;;;18.16;52.84;101809.28;5029773;28;20196;-62
2022/01/11 07:42:32;;;;;;;4.27;2.80;;;;;;;18.27;52.58;101819.97;5029616;28;20191;-62
2022/01/11 07:44:58;;;;;;;5.07;3.17;;;;;;;18.28;52.31;101815.97;5029929;28;20430;-62
2022/01/11 07:47:23;;;;;;;3.57;2.63;;;;;;;18.23;52.39;101816.16;5030078;28;20192;-62
2022/01/11 07:49:49;;;;;;;4.87;3.00;;;;;;;18.25;52.23;101821.50;5046286;28;20639;-62
2022/01/11 07:52:14;;;;;;;3.73;2.70;;;;;;;18.19;52.52;101820.88;5049546;28;20642;-62
2022/01/11 07:54:40;;;;;;;4.67;3.10;;;;;;;18.19;52.70;101828.59;5050069;28;20558;-62
2022/01/11 07:57:06;;;;;;;4.23;2.77;;;;;;;18.30;52.07;101835.59;5049646;28;20187;-62
2022/01/11 07:59:31;;;;;;;5.13;3.23;;;;;;;18.22;52.68;101833.63;5048470;28;20223;-62
2022/01/11 08:02:00;;;;;;;3.70;2.97;;;;;;;18.26;52.34;101837.50;5049865;28;20211;-62
2022/01/11 08:04:30;;;;;;;3.70;2.87;;;;;;;18.24;52.49;101840.69;5049317;28;20382;-62
2022/01/11 08:06:56;;;;;;;3.27;2.43;;;;;;;18.28;52.54;101853.13;5049210;28;20811;-62
2022/01/11 08:09:22;;;;;;;4.53;3.10;;;;;;;18.23;52.34;101841.03;5049563;28;20422;-62
2022/01/11 08:11:49;;;;;;;4.03;2.83;;;;;;;18.24;52.53;101848.41;5049623;28;20500;-62
2022/01/11 08:14:15;;;;;;;5.23;3.37;;;;;;;18.20;52.59;101851.13;5030845;28;20229;-62
2022/01/11 08:16:40;;;;;;;4.07;2.57;;;;;;;18.16;52.66;101843.59;5049812;28;20925;-62
2022/01/11 08:19:06;;;;;;;4.13;2.90;;;;;;;18.19;52.93;101848.59;5041623;28;20609;-62
2022/01/11 08:21:31;;;;;;;4.77;3.33;;;;;;;18.24;52.69;101848.41;5049221;28;20192;-62
2022/01/11 08:23:57;;;;;;;4.17;2.87;;;;;;;18.25;52.58;101859.50;5048749;28;20313;-62
2022/01/11 08:26:22;;;;;;;5.00;3.00;;;;;;;18.21;52.70;101857.69;5042103;28;20172;-62
2022/01/11 08:28:47;;;;;;;4.93;3.40;;;;;;;18.28;52.49;101846.56;5028751;28;20185;-62
2022/01/11 08:31:13;;;;;;;4.80;3.30;;;;;;;18.19;52.60;101852.31;5029142;28;20637;-62
2022/01/11 08:33:38;;;;;;;4.83;3.00;;;;;;;18.21;52.49;101847.06;5028150;28;20667;-62
2022/01/11 08:36:05;;;;;;;4.00;2.80;;;;;;;18.18;52.83;101853.50;5028700;28;20172;-62
2022/01/11 08:38:30;;;;;;;4.63;3.20;;;;;;;18.24;52.72;101851.28;5028857;28;20187;-62
2022/01/11 08:40:56;;;;;;;4.17;3.00;;;;;;;18.24;52.58;101845.56;5013409;28;20439;-62
2022/01/11 08:43:21;;;;;;;4.57;3.00;;;;;;;18.18;52.81;101850.63;5030996;28;20180;-62
2022/01/11 08:45:47;;;;;;;5.20;3.10;;;;;;;18.20;52.67;101856.84;5029201;28;20718;-62
2022/01/11 08:48:12;;;;;;;4.67;3.37;;;;;;;18.24;52.55;101839.84;5031891;28;20516;-62
2022/01/11 08:50:37;;;;;;;4.43;3.43;;;;;;;18.20;52.62;101851.13;5048287;28;20164;-62
2022/01/11 08:53:03;;;;;;;4.10;2.97;;;;;;;18.24;52.33;101840.69;5046859;28;20523;-62
2022/01/11 08:55:28;;;;;;;3.97;3.07;;;;;;;18.31;52.36;101846.69;5030222;28;20258;-62
2022/01/11 08:57:54;;;;;;;3.77;2.80;;;;;;;18.28;52.28;101847.41;5028448;28;20583;-62
2022/01/11 09:00:19;;;;;;;4.93;3.10;;;;;;;18.25;52.52;101841.50;5028364;28;20282;-62
2022/01/11 09:02:46;;;;;;;4.43;3.13;;;;;;;18.22;52.74;101851.59;5028715;28;20707;-62
2022/01/11 09:05:11;;;;;;;7.40;3.37;;;;;;;18.32;52.34;101848.41;5028970;28;20694;-62
2022/01/11 09:07:37;;;;;;;3.80;2.87;;;;;;;18.31;52.40;101846.69;5028449;28;20525;-62
2022/01/11 09:10:03;;;;;;;3.87;2.73;;;;;;;18.28;52.44;101844.56;5010257;28;20171;-62
2022/01/11 09:12:29;;;;;;;4.43;3.00;;;;;;;18.24;52.46;101845.56;5028768;28;20534;-62
2022/01/11 09:14:54;;;;;;;4.00;3.13;;;;;;;18.29;52.72;101856.81;5031385;28;20431;-62
2022/01/11 09:17:19;;;;;;;3.90;2.97;;;;;;;18.28;52.42;101855.13;5028813;28;20183;-62
2022/01/11 09:19:45;;;;;;;4.23;3.10;;;;;;;18.27;52.73;101854.28;5044961;28;20212;-62
2022/01/11 09:22:10;;;;;;;4.50;2.80;;;;;;;18.29;52.37;101854.78;5048796;28;20520;-62
2022/01/11 09:24:36;;;;;;;5.10;3.33;;;;;;;18.32;52.20;101856.13;5044723;28;20233;-62
2022/01/11 09:27:04;;;;;;;4.60;3.33;;;;;;;18.28;52.42;101853.13;5011046;28;20826;-62
2022/01/11 09:29:31;;;;;;;4.60;2.97;;;;;;;18.29;52.49;101848.22;5027652;28;20176;-62
2022/01/11 09:31:57;;;;;;;4.50;2.90;;;;;;;18.31;52.54;101855.28;5028365;28;20485;-62
2022/01/11 09:34:23;;;;;;;4.33;2.90;;;;;;;18.31;52.29;101852.41;5028645;28;20423;-62
2022/01/11 09:36:49;;;;;;;4.47;3.30;;;;;;;18.31;52.60;101852.41;5028212;28;20423;-62
2022/01/11 09:39:14;;;;;;;4.40;3.07;;;;;;;18.26;52.50;101855.47;5027605;28;20180;-62
2022/01/11 09:41:40;;;;;;;4.10;2.73;;;;;;;18.26;52.67;101851.78;5027203;28;20309;-62
2022/01/11 09:44:07;;;;;;;5.50;3.20;;;;;;;18.24;52.50;101863.56;5010692;28;20191;-62
2022/01/11 09:46:32;;;;;;;4.53;3.03;;;;;;;18.31;52.39;101863.84;5028242;28;20187;-62
2022/01/11 09:48:57;;;;;;;6.43;3.50;;;;;;;18.35;52.46;101864.03;5040600;28;20425;-62
2022/01/11 09:51:23;;;;;;;4.67;3.10;;;;;;;18.41;52.06;101871.28;5052404;28;20164;-62
2022/01/11 09:53:48;;;;;;;5.23;3.30;;;;;;;18.32;52.41;101876.16;5052166;28;20171;-62
2022/01/11 09:56:14;;;;;;;4.83;3.30;;;;;;;18.28;52.69;101873.13;5051864;28;20191;-62
2022/01/11 09:58:41;;;;;;;5.00;3.33;;;;;;;18.27;52.42;101882.88;5040234;28;20534;-62
2022/01/11 10:01:06;;;;;;;5.20;3.60;;;;;;;18.33;52.52;101884.41;5031419;28;20703;-62
2022/01/11 10:03:53;;;;;;;4.90;3.20;;;;;;;18.31;52.72;101877.34;5032037;28;20501;-62
2022/01/11 10:06:18;;;;;;;4.90;3.30;;;;;;;18.28;52.50;101876.00;5017365;28;20192;-62
2022/01/11 10:08:44;;;;;;;4.13;2.80;;;;;;;18.30;52.55;101887.91;5013838;28;20777;-62
2022/01/11 10:11:09;;;;;;;8.23;3.80;;;;;;;18.26;52.86;101875.47;5031683;28;20160;-62
2022/01/11 10:13:41;;;;;;;3.90;2.90;;;;;;;18.31;52.54;101885.91;5013719;28;20647;-62
2022/01/11 10:16:23;;;;;;;4.13;3.17;;;;;;;18.27;52.53;101884.91;5031803;28;20540;-62
2022/01/11 10:18:49;;;;;;;4.70;3.17;;;;;;;18.30;52.86;101879.34;5046190;28;20433;-62
2022/01/11 10:21:37;;;;;;;3.90;2.87;;;;;;;18.35;52.56;101876.34;5038837;28;20512;-62
2022/01/11 10:24:25;;;;;;;4.10;3.00;;;;;;;18.37;52.39;101873.94;5033904;28;20180;-62
2022/01/11 10:26:53;;;;;;;4.67;2.83;;;;;;;18.31;52.79;101875.28;5031872;28;20493;-62
2022/01/11 10:29:48;;;;;;;4.40;3.20;;;;;;;18.29;52.71;101877.66;5030896;28;20533;-62
2022/01/11 10:32:31;;;;;;;5.20;3.37;;;;;;;18.34;52.27;101874.66;5030194;28;20778;-62
2022/01/11 10:34:58;;;;;;;3.87;3.17;;;;;;;18.34;52.74;101880.38;5031386;28;20407;-62
2022/01/11 10:37:44;;;;;;;3.90;2.80;;;;;;;18.31;52.72;101875.28;5031439;28;20465;-62
2022/01/11 10:40:22;;;;;;;3.53;2.80;;;;;;;18.37;52.49;101873.94;5017962;28;20976;-62
2022/01/11 10:42:49;;;;;;;4.20;2.87;;;;;;;18.40;52.22;101869.56;5031325;28;20980;-62
2022/01/11 10:45:25;;;;;;;4.00;2.80;;;;;;;18.31;52.89;101857.31;5031241;28;20911;-62
2022/01/11 10:47:54;;;;;;;4.13;2.90;;;;;;;18.31;52.83;101866.72;5029702;28;20433;-62
2022/01/11 10:50:26;;;;;;;4.23;3.20;;;;;;;18.34;52.65;101865.22;5045048;28;20407;-62
2022/01/11 10:52:51;;;;;;;4.73;3.00;;;;;;;18.32;52.71;101865.56;5046292;28;20444;-62
2022/01/11 10:55:18;;;;;;;4.70;2.90;;;;;;;18.38;52.46;101872.81;5031397;28;20809;-62
2022/01/11 10:57:49;;;;;;;3.73;2.80;;;;;;;18.33;52.60;101872.97;5031135;28;20173;-62
2022/01/11 11:00:20;;;;;;;4.63;3.20;;;;;;;18.34;52.53;101882.38;5029592;28;20475;-62
2022/01/11 11:02:49;;;;;;;5.27;3.37;;;;;;;18.35;52.56;101875.47;5030918;28;20423;-62
2022/01/11 11:05:17;;;;;;;3.57;2.50;;;;;;;18.30;52.23;101884.19;5031222;28;20921;-61
2022/01/11 11:07:43;;;;;;;3.93;2.73;;;;;;;18.39;52.38;101871.59;5030677;28;20435;-62
2022/01/11 11:10:09;;;;;;;4.60;2.80;;;;;;;18.37;52.51;101868.22;4996453;28;20423;-62
2022/01/11 11:12:34;;;;;;;3.83;2.97;;;;;;;18.34;52.74;101873.81;5031102;28;20260;-62
2022/01/11 11:15:00;;;;;;;4.33;2.67;;;;;;;18.34;52.62;101880.38;5030921;28;20180;-62
2022/01/11 11:17:32;;;;;;;5.03;3.10;;;;;;;18.35;52.78;101878.34;5034356;28;20179;-62
2022/01/11 11:20:06;;;;;;;4.43;2.80;;;;;;;18.35;52.71;101881.19;5048043;28;20551;-62
2022/01/11 11:22:32;;;;;;;3.20;2.43;;;;;;;18.40;52.25;101876.13;5035016;28;20423;-62
2022/01/11 11:24:58;;;;;;;4.23;3.10;;;;;;;18.33;52.47;101884.41;5050159;28;20429;-62
2022/01/11 11:27:24;;;;;;;5.13;3.60;;;;;;;18.31;52.65;101881.00;5050783;28;20572;-62